Arlington, Kansas
Current Conditions -  °F | °C
As of 3:52 PM on Friday 31 Oct 2014 (Local Time) from KHUT Reporting Station
Clear Clear  
Wind Chill:   Ceiling: Unl
Heat Index:   Visibility: 10mi
Dew Point: -8°   Wind: 9mph
Humidity: 29%   Direction: 50°NE
Pressure: 30.44"   Gusts: 20mph
Location:  37.9°N, 98.18°W
Report Text: KHUT 312052Z 05008G17KT 10SM CLR 09/M08 A3044 RMK AO2 SLP307 T00891083 56022
Loading
Personal Weather Stations






























Interactive Weather Map
Tropical Storm Tracking
New forecast layout! Learn more

10-Day Weather Forecast

Advertisements
Track Severe Weather on mobile